Main page
METAR-TAF:

METAR-TAF

Airports :

Cap. FAP Pedro Canga Rodríguez Airport

Tumbes, Peru

latitude: 03-33S, longitude: 080-24W, elevation: 25 m

Current weather observation

The report was made 7 hours and 48 minutes ago, at 22:00 UTC
Wind 5 kt from the West/Northwest
Temperature 22°C
Humidity 88%
Pressure 1011 hPa
Visibility 10 km or more
Overcast at a height of 1300 ft

METAR: SPME 222200Z 29005KT 9999 OVC013 22/20 Q1011 RMK BIRD HAZARD RWY 32/14 PP000

Time: 00:48 (05:48 UTC)

Forecast

The report was made 8 hours and 36 minutes ago, at 21:12 UTC
Forecast valid from 22 at 21 UTC to 23 at 18 UTC
Wind 7 kt from the North/Northwest
Visibility 10 km or more
Broken clouds at a height of 1300 ft
Temporary
from 23 at 03 UTC to 23 at 06 UTC
rain
From 23 at 1000 UTC
Wind 3 kt from the North
Visibility 10 km or more
Overcast at a height of 1000 ft

TAF: SPME 222112Z 2221/2318 34007KT 9999 BKN013 TX15/2318Z TN21/2311Z TEMPO 2303/2306 RA FM231000 36003KT 9999 OVC010

Weather observations and forecasts of more than 4000 airports (METAR and TAF reports).

The available stations are represented by yellow and red dots on the map.

Hover mouse over dot to see the name of the station.

Then click to see weather observations and forecasts.

To change the map : click on the green buttons with a black cross to zoom in, on the green button with a dash to zoom out, or on the green arrows for adjacent maps.


METAR-TAF: